sensor_id;sensor_type;location;lat;lon;timestamp;P1;durP1;ratioP1;P2;durP2;ratioP2
3337;SDS011;1682;49.286;10.788;2023-09-08T00:02:18;5.70;;;5.20;;
3337;SDS011;1682;49.286;10.788;2023-09-08T00:05:06;5.73;;;5.23;;
3337;SDS011;1682;49.286;10.788;2023-09-08T00:07:53;6.33;;;5.73;;
3337;SDS011;1682;49.286;10.788;2023-09-08T00:10:42;6.17;;;5.60;;
3337;SDS011;1682;49.286;10.788;2023-09-08T00:13:30;8.90;;;6.47;;
3337;SDS011;1682;49.286;10.788;2023-09-08T00:16:17;6.87;;;6.20;;
3337;SDS011;1682;49.286;10.788;2023-09-08T00:19:05;6.80;;;6.13;;
3337;SDS011;1682;49.286;10.788;2023-09-08T00:21:52;5.83;;;5.33;;
3337;SDS011;1682;49.286;10.788;2023-09-08T00:24:40;8.33;;;6.43;;
3337;SDS011;1682;49.286;10.788;2023-09-08T00:27:28;8.00;;;7.23;;
3337;SDS011;1682;49.286;10.788;2023-09-08T00:30:16;7.30;;;5.90;;
3337;SDS011;1682;49.286;10.788;2023-09-08T00:33:04;6.87;;;6.20;;
3337;SDS011;1682;49.286;10.788;2023-09-08T00:35:54;6.17;;;5.67;;
3337;SDS011;1682;49.286;10.788;2023-09-08T00:38:42;7.47;;;6.47;;
3337;SDS011;1682;49.286;10.788;2023-09-08T00:41:30;6.40;;;5.80;;
3337;SDS011;1682;49.286;10.788;2023-09-08T00:44:20;6.83;;;6.23;;
3337;SDS011;1682;49.286;10.788;2023-09-08T00:47:10;7.27;;;6.30;;
3337;SDS011;1682;49.286;10.788;2023-09-08T00:49:58;7.53;;;6.73;;
3337;SDS011;1682;49.286;10.788;2023-09-08T00:52:45;7.57;;;6.87;;
3337;SDS011;1682;49.286;10.788;2023-09-08T00:55:33;7.57;;;6.57;;
3337;SDS011;1682;49.286;10.788;2023-09-08T00:58:21;6.90;;;6.30;;
3337;SDS011;1682;49.286;10.788;2023-09-08T01:01:10;8.83;;;6.90;;
3337;SDS011;1682;49.286;10.788;2023-09-08T01:03:58;6.90;;;6.30;;
3337;SDS011;1682;49.286;10.788;2023-09-08T01:06:45;7.23;;;6.63;;
3337;SDS011;1682;49.286;10.788;2023-09-08T01:09:33;8.60;;;6.47;;
3337;SDS011;1682;49.286;10.788;2023-09-08T01:12:21;7.40;;;6.70;;
3337;SDS011;1682;49.286;10.788;2023-09-08T01:15:09;7.10;;;6.40;;
3337;SDS011;1682;49.286;10.788;2023-09-08T01:17:59;7.20;;;6.50;;
3337;SDS011;1682;49.286;10.788;2023-09-08T01:20:48;8.20;;;7.33;;
3337;SDS011;1682;49.286;10.788;2023-09-08T01:23:44;7.10;;;6.17;;
3337;SDS011;1682;49.286;10.788;2023-09-08T01:26:40;7.60;;;6.00;;
3337;SDS011;1682;49.286;10.788;2023-09-08T01:29:28;10.10;;;8.13;;
3337;SDS011;1682;49.286;10.788;2023-09-08T01:32:17;7.90;;;6.80;;
3337;SDS011;1682;49.286;10.788;2023-09-08T01:35:05;7.43;;;6.80;;
3337;SDS011;1682;49.286;10.788;2023-09-08T01:37:53;9.20;;;8.30;;
3337;SDS011;1682;49.286;10.788;2023-09-08T01:40:41;7.33;;;6.63;;
3337;SDS011;1682;49.286;10.788;2023-09-08T01:43:29;8.43;;;6.97;;
3337;SDS011;1682;49.286;10.788;2023-09-08T01:46:17;10.90;;;7.00;;
3337;SDS011;1682;49.286;10.788;2023-09-08T01:49:04;10.27;;;7.77;;
3337;SDS011;1682;49.286;10.788;2023-09-08T01:51:52;7.53;;;6.73;;
3337;SDS011;1682;49.286;10.788;2023-09-08T01:54:39;9.20;;;8.03;;
3337;SDS011;1682;49.286;10.788;2023-09-08T01:57:27;8.00;;;7.17;;
3337;SDS011;1682;49.286;10.788;2023-09-08T02:00:16;9.07;;;7.97;;
3337;SDS011;1682;49.286;10.788;2023-09-08T02:03:04;10.93;;;7.90;;
3337;SDS011;1682;49.286;10.788;2023-09-08T02:05:51;6.97;;;6.27;;
3337;SDS011;1682;49.286;10.788;2023-09-08T02:08:39;12.67;;;8.00;;
3337;SDS011;1682;49.286;10.788;2023-09-08T02:11:26;8.40;;;7.13;;
3337;SDS011;1682;49.286;10.788;2023-09-08T02:14:14;8.57;;;7.67;;
3337;SDS011;1682;49.286;10.788;2023-09-08T02:17:03;9.93;;;7.30;;
3337;SDS011;1682;49.286;10.788;2023-09-08T02:19:51;9.30;;;7.80;;
3337;SDS011;1682;49.286;10.788;2023-09-08T02:22:39;14.77;;;8.77;;
3337;SDS011;1682;49.286;10.788;2023-09-08T02:25:27;11.20;;;7.93;;
3337;SDS011;1682;49.286;10.788;2023-09-08T02:28:14;9.30;;;7.70;;
3337;SDS011;1682;49.286;10.788;2023-09-08T02:31:01;8.67;;;7.87;;
3337;SDS011;1682;49.286;10.788;2023-09-08T02:33:50;9.17;;;7.40;;
3337;SDS011;1682;49.286;10.788;2023-09-08T02:36:38;8.07;;;7.27;;
3337;SDS011;1682;49.286;10.788;2023-09-08T02:39:25;7.93;;;7.23;;
3337;SDS011;1682;49.286;10.788;2023-09-08T02:42:13;8.37;;;7.57;;
3337;SDS011;1682;49.286;10.788;2023-09-08T02:45:01;8.20;;;7.30;;
3337;SDS011;1682;49.286;10.788;2023-09-08T02:47:48;9.43;;;7.97;;
3337;SDS011;1682;49.286;10.788;2023-09-08T02:50:37;8.60;;;7.80;;
3337;SDS011;1682;49.286;10.788;2023-09-08T02:53:25;8.70;;;7.77;;
3337;SDS011;1682;49.286;10.788;2023-09-08T02:56:14;9.57;;;7.70;;
3337;SDS011;1682;49.286;10.788;2023-09-08T02:59:01;8.80;;;7.87;;
3337;SDS011;1682;49.286;10.788;2023-09-08T03:01:48;9.27;;;8.47;;
3337;SDS011;1682;49.286;10.788;2023-09-08T03:04:36;9.27;;;8.47;;
3337;SDS011;1682;49.286;10.788;2023-09-08T03:07:25;16.53;;;8.67;;
3337;SDS011;1682;49.286;10.788;2023-09-08T03:10:12;7.33;;;6.63;;
3337;SDS011;1682;49.286;10.788;2023-09-08T03:13:00;9.90;;;8.63;;
3337;SDS011;1682;49.286;10.788;2023-09-08T03:15:47;11.10;;;7.73;;
3337;SDS011;1682;49.286;10.788;2023-09-08T03:18:35;9.37;;;8.37;;
3337;SDS011;1682;49.286;10.788;2023-09-08T03:21:23;9.00;;;8.13;;
3337;SDS011;1682;49.286;10.788;2023-09-08T03:24:12;12.40;;;8.40;;
3337;SDS011;1682;49.286;10.788;2023-09-08T03:26:59;11.63;;;8.47;;
3337;SDS011;1682;49.286;10.788;2023-09-08T03:29:47;8.93;;;7.43;;
3337;SDS011;1682;49.286;10.788;2023-09-08T03:32:34;9.60;;;7.27;;
3337;SDS011;1682;49.286;10.788;2023-09-08T03:35:21;9.60;;;8.65;;
3337;SDS011;1682;49.286;10.788;2023-09-08T03:38:09;11.80;;;8.07;;
3337;SDS011;1682;49.286;10.788;2023-09-08T03:40:58;13.23;;;8.93;;
3337;SDS011;1682;49.286;10.788;2023-09-08T03:43:45;10.93;;;8.17;;
3337;SDS011;1682;49.286;10.788;2023-09-08T03:46:35;9.20;;;6.90;;
3337;SDS011;1682;49.286;10.788;2023-09-08T03:49:23;9.27;;;8.30;;
3337;SDS011;1682;49.286;10.788;2023-09-08T03:52:10;10.10;;;8.10;;
3337;SDS011;1682;49.286;10.788;2023-09-08T03:54:58;8.80;;;7.90;;
3337;SDS011;1682;49.286;10.788;2023-09-08T03:57:47;9.00;;;8.10;;
3337;SDS011;1682;49.286;10.788;2023-09-08T04:00:34;8.50;;;7.67;;
3337;SDS011;1682;49.286;10.788;2023-09-08T04:03:22;7.50;;;6.87;;
3337;SDS011;1682;49.286;10.788;2023-09-08T04:06:09;9.07;;;8.23;;
3337;SDS011;1682;49.286;10.788;2023-09-08T04:08:57;13.97;;;9.37;;
3337;SDS011;1682;49.286;10.788;2023-09-08T04:11:44;10.90;;;9.80;;
3337;SDS011;1682;49.286;10.788;2023-09-08T04:14:33;10.00;;;8.73;;
3337;SDS011;1682;49.286;10.788;2023-09-08T04:17:21;8.90;;;8.00;;
3337;SDS011;1682;49.286;10.788;2023-09-08T04:20:09;12.10;;;9.33;;
3337;SDS011;1682;49.286;10.788;2023-09-08T04:22:59;13.23;;;8.63;;
3337;SDS011;1682;49.286;10.788;2023-09-08T04:25:46;10.97;;;8.87;;
3337;SDS011;1682;49.286;10.788;2023-09-08T04:28:34;10.37;;;8.60;;
3337;SDS011;1682;49.286;10.788;2023-09-08T04:31:22;10.57;;;9.53;;
3337;SDS011;1682;49.286;10.788;2023-09-08T04:34:10;7.97;;;7.13;;
3337;SDS011;1682;49.286;10.788;2023-09-08T04:36:57;11.10;;;10.00;;
3337;SDS011;1682;49.286;10.788;2023-09-08T04:39:45;13.70;;;8.03;;
3337;SDS011;1682;49.286;10.788;2023-09-08T04:42:32;11.10;;;7.90;;
3337;SDS011;1682;49.286;10.788;2023-09-08T04:45:20;8.80;;;8.10;;
3337;SDS011;1682;49.286;10.788;2023-09-08T04:48:09;11.87;;;9.60;;
3337;SDS011;1682;49.286;10.788;2023-09-08T04:50:56;10.47;;;9.40;;
3337;SDS011;1682;49.286;10.788;2023-09-08T04:53:44;11.47;;;10.10;;
3337;SDS011;1682;49.286;10.788;2023-09-08T04:56:31;13.10;;;9.80;;
3337;SDS011;1682;49.286;10.788;2023-09-08T04:59:19;12.07;;;8.30;;
3337;SDS011;1682;49.286;10.788;2023-09-08T05:02:08;10.27;;;9.10;;
3337;SDS011;1682;49.286;10.788;2023-09-08T05:04:56;12.43;;;9.30;;
3337;SDS011;1682;49.286;10.788;2023-09-08T05:07:45;12.20;;;9.27;;
3337;SDS011;1682;49.286;10.788;2023-09-08T05:10:33;10.20;;;8.90;;
3337;SDS011;1682;49.286;10.788;2023-09-08T05:13:20;8.60;;;7.70;;
3337;SDS011;1682;49.286;10.788;2023-09-08T05:16:11;11.50;;;8.63;;
3337;SDS011;1682;49.286;10.788;2023-09-08T05:18:59;8.80;;;8.10;;
3337;SDS011;1682;49.286;10.788;2023-09-08T05:21:49;9.90;;;7.97;;
3337;SDS011;1682;49.286;10.788;2023-09-08T05:24:36;10.57;;;8.53;;
3337;SDS011;1682;49.286;10.788;2023-09-08T05:27:24;8.63;;;7.80;;
3337;SDS011;1682;49.286;10.788;2023-09-08T05:30:11;16.13;;;9.03;;
3337;SDS011;1682;49.286;10.788;2023-09-08T05:32:59;10.60;;;9.37;;
3337;SDS011;1682;49.286;10.788;2023-09-08T05:35:46;9.87;;;8.70;;
3337;SDS011;1682;49.286;10.788;2023-09-08T05:38:35;10.27;;;8.73;;
3337;SDS011;1682;49.286;10.788;2023-09-08T05:41:23;11.77;;;10.00;;
3337;SDS011;1682;49.286;10.788;2023-09-08T05:44:10;12.27;;;10.17;;
3337;SDS011;1682;49.286;10.788;2023-09-08T05:46:58;12.50;;;9.33;;
3337;SDS011;1682;49.286;10.788;2023-09-08T05:49:45;11.17;;;9.13;;
3337;SDS011;1682;49.286;10.788;2023-09-08T05:52:33;9.93;;;8.83;;
3337;SDS011;1682;49.286;10.788;2023-09-08T05:55:21;11.10;;;9.70;;
3337;SDS011;1682;49.286;10.788;2023-09-08T05:58:09;11.20;;;9.60;;
3337;SDS011;1682;49.286;10.788;2023-09-08T06:00:56;14.10;;;8.63;;
3337;SDS011;1682;49.286;10.788;2023-09-08T06:03:44;16.50;;;11.67;;
3337;SDS011;1682;49.286;10.788;2023-09-08T06:06:31;12.67;;;10.97;;
3337;SDS011;1682;49.286;10.788;2023-09-08T06:09:19;10.70;;;9.63;;
3337;SDS011;1682;49.286;10.788;2023-09-08T06:12:08;16.33;;;9.27;;
3337;SDS011;1682;49.286;10.788;2023-09-08T06:14:55;9.03;;;8.20;;
3337;SDS011;1682;49.286;10.788;2023-09-08T06:17:43;8.70;;;7.50;;
3337;SDS011;1682;49.286;10.788;2023-09-08T06:20:32;8.13;;;7.50;;
3337;SDS011;1682;49.286;10.788;2023-09-08T06:23:19;13.10;;;11.20;;
3337;SDS011;1682;49.286;10.788;2023-09-08T06:26:07;10.10;;;9.20;;
3337;SDS011;1682;49.286;10.788;2023-09-08T06:28:56;11.30;;;8.00;;
3337;SDS011;1682;49.286;10.788;2023-09-08T06:31:43;9.60;;;8.60;;
3337;SDS011;1682;49.286;10.788;2023-09-08T06:34:31;9.53;;;8.63;;
3337;SDS011;1682;49.286;10.788;2023-09-08T06:37:20;22.83;;;18.47;;
3337;SDS011;1682;49.286;10.788;2023-09-08T06:40:08;15.40;;;12.67;;
3337;SDS011;1682;49.286;10.788;2023-09-08T06:42:55;10.17;;;9.27;;
3337;SDS011;1682;49.286;10.788;2023-09-08T06:45:46;8.07;;;7.37;;
3337;SDS011;1682;49.286;10.788;2023-09-08T06:48:34;8.97;;;8.03;;
3337;SDS011;1682;49.286;10.788;2023-09-08T06:51:22;8.07;;;7.07;;
3337;SDS011;1682;49.286;10.788;2023-09-08T06:54:10;8.43;;;7.70;;
3337;SDS011;1682;49.286;10.788;2023-09-08T06:56:57;9.10;;;8.20;;
3337;SDS011;1682;49.286;10.788;2023-09-08T06:59:45;13.73;;;9.27;;
3337;SDS011;1682;49.286;10.788;2023-09-08T07:02:33;11.17;;;9.77;;
3337;SDS011;1682;49.286;10.788;2023-09-08T07:05:21;10.80;;;9.70;;
3337;SDS011;1682;49.286;10.788;2023-09-08T07:08:08;12.60;;;11.27;;
3337;SDS011;1682;49.286;10.788;2023-09-08T07:10:56;7.47;;;6.70;;
3337;SDS011;1682;49.286;10.788;2023-09-08T07:13:43;7.57;;;6.87;;
3337;SDS011;1682;49.286;10.788;2023-09-08T07:16:31;6.37;;;5.87;;
3337;SDS011;1682;49.286;10.788;2023-09-08T07:19:20;7.23;;;6.53;;
3337;SDS011;1682;49.286;10.788;2023-09-08T07:22:07;11.50;;;7.90;;
3337;SDS011;1682;49.286;10.788;2023-09-08T07:24:55;8.73;;;7.80;;
3337;SDS011;1682;49.286;10.788;2023-09-08T07:27:42;16.37;;;10.00;;
3337;SDS011;1682;49.286;10.788;2023-09-08T07:30:31;11.00;;;6.87;;
3337;SDS011;1682;49.286;10.788;2023-09-08T07:33:19;6.50;;;5.90;;
3337;SDS011;1682;49.286;10.788;2023-09-08T07:36:09;8.43;;;7.60;;
3337;SDS011;1682;49.286;10.788;2023-09-08T07:38:59;5.93;;;5.43;;
3337;SDS011;1682;49.286;10.788;2023-09-08T07:41:46;11.40;;;8.37;;
3337;SDS011;1682;49.286;10.788;2023-09-08T07:44:33;8.53;;;7.73;;
3337;SDS011;1682;49.286;10.788;2023-09-08T07:47:21;10.60;;;7.13;;
3337;SDS011;1682;49.286;10.788;2023-09-08T07:50:19;6.83;;;6.13;;
3337;SDS011;1682;49.286;10.788;2023-09-08T07:53:08;7.87;;;7.27;;
3337;SDS011;1682;49.286;10.788;2023-09-08T07:55:55;5.67;;;5.17;;
3337;SDS011;1682;49.286;10.788;2023-09-08T07:58:43;6.73;;;5.70;;
3337;SDS011;1682;49.286;10.788;2023-09-08T08:01:30;6.10;;;5.57;;
3337;SDS011;1682;49.286;10.788;2023-09-08T08:04:18;6.20;;;5.60;;
3337;SDS011;1682;49.286;10.788;2023-09-08T08:07:05;12.40;;;8.63;;
3337;SDS011;1682;49.286;10.788;2023-09-08T08:09:54;22.00;;;18.57;;
3337;SDS011;1682;49.286;10.788;2023-09-08T08:12:42;12.97;;;11.97;;
3337;SDS011;1682;49.286;10.788;2023-09-08T08:15:36;11.80;;;10.63;;
3337;SDS011;1682;49.286;10.788;2023-09-08T08:18:24;7.57;;;6.13;;
3337;SDS011;1682;49.286;10.788;2023-09-08T08:21:11;7.90;;;7.30;;
3337;SDS011;1682;49.286;10.788;2023-09-08T08:23:59;7.60;;;7.00;;
3337;SDS011;1682;49.286;10.788;2023-09-08T08:26:47;6.87;;;6.27;;
3337;SDS011;1682;49.286;10.788;2023-09-08T08:29:38;6.37;;;5.87;;
3337;SDS011;1682;49.286;10.788;2023-09-08T08:32:26;5.90;;;5.30;;
3337;SDS011;1682;49.286;10.788;2023-09-08T08:35:13;5.47;;;4.97;;
3337;SDS011;1682;49.286;10.788;2023-09-08T08:38:01;6.03;;;5.57;;
3337;SDS011;1682;49.286;10.788;2023-09-08T08:40:48;5.60;;;5.20;;
3337;SDS011;1682;49.286;10.788;2023-09-08T08:43:37;5.10;;;4.60;;
3337;SDS011;1682;49.286;10.788;2023-09-08T08:46:25;5.33;;;4.93;;
3337;SDS011;1682;49.286;10.788;2023-09-08T08:49:13;6.57;;;5.53;;
3337;SDS011;1682;49.286;10.788;2023-09-08T08:52:02;5.40;;;4.90;;
3337;SDS011;1682;49.286;10.788;2023-09-08T08:54:53;4.50;;;4.20;;
3337;SDS011;1682;49.286;10.788;2023-09-08T08:57:41;5.70;;;5.20;;
3337;SDS011;1682;49.286;10.788;2023-09-08T09:00:31;5.77;;;5.37;;
3337;SDS011;1682;49.286;10.788;2023-09-08T09:03:21;5.87;;;5.47;;
3337;SDS011;1682;49.286;10.788;2023-09-08T09:06:09;8.87;;;4.90;;
3337;SDS011;1682;49.286;10.788;2023-09-08T09:08:57;4.87;;;4.47;;
3337;SDS011;1682;49.286;10.788;2023-09-08T09:11:44;5.63;;;5.03;;
3337;SDS011;1682;49.286;10.788;2023-09-08T09:14:32;6.80;;;5.13;;
3337;SDS011;1682;49.286;10.788;2023-09-08T09:17:21;4.80;;;4.50;;
3337;SDS011;1682;49.286;10.788;2023-09-08T09:20:12;4.60;;;4.30;;
3337;SDS011;1682;49.286;10.788;2023-09-08T09:23:00;6.50;;;4.93;;
3337;SDS011;1682;49.286;10.788;2023-09-08T09:25:48;8.40;;;5.50;;
3337;SDS011;1682;49.286;10.788;2023-09-08T09:28:37;5.13;;;4.63;;
3337;SDS011;1682;49.286;10.788;2023-09-08T09:31:33;5.00;;;4.60;;
3337;SDS011;1682;49.286;10.788;2023-09-08T09:34:22;6.00;;;5.40;;
3337;SDS011;1682;49.286;10.788;2023-09-08T09:37:10;8.33;;;4.17;;
3337;SDS011;1682;49.286;10.788;2023-09-08T09:39:59;4.80;;;4.30;;
3337;SDS011;1682;49.286;10.788;2023-09-08T09:42:50;5.60;;;4.60;;
3337;SDS011;1682;49.286;10.788;2023-09-08T09:45:38;5.40;;;4.30;;
3337;SDS011;1682;49.286;10.788;2023-09-08T09:48:25;5.10;;;4.33;;
3337;SDS011;1682;49.286;10.788;2023-09-08T09:51:16;4.70;;;4.30;;
3337;SDS011;1682;49.286;10.788;2023-09-08T09:54:05;4.70;;;4.33;;
3337;SDS011;1682;49.286;10.788;2023-09-08T09:56:53;5.20;;;4.70;;
3337;SDS011;1682;49.286;10.788;2023-09-08T09:59:40;5.20;;;4.70;;
3337;SDS011;1682;49.286;10.788;2023-09-08T10:02:28;5.97;;;4.73;;
3337;SDS011;1682;49.286;10.788;2023-09-08T10:05:16;5.40;;;4.77;;
3337;SDS011;1682;49.286;10.788;2023-09-08T10:08:05;7.13;;;5.23;;
3337;SDS011;1682;49.286;10.788;2023-09-08T10:10:53;8.93;;;5.43;;
3337;SDS011;1682;49.286;10.788;2023-09-08T10:13:42;4.90;;;4.50;;
3337;SDS011;1682;49.286;10.788;2023-09-08T10:16:32;9.23;;;4.80;;
3337;SDS011;1682;49.286;10.788;2023-09-08T10:19:21;5.10;;;4.60;;
3337;SDS011;1682;49.286;10.788;2023-09-08T10:22:10;4.83;;;4.30;;
3337;SDS011;1682;49.286;10.788;2023-09-08T10:25:00;3.80;;;3.50;;
3337;SDS011;1682;49.286;10.788;2023-09-08T10:27:49;5.10;;;4.70;;
3337;SDS011;1682;49.286;10.788;2023-09-08T10:30:36;5.57;;;4.37;;
3337;SDS011;1682;49.286;10.788;2023-09-08T10:33:24;4.93;;;4.43;;
3337;SDS011;1682;49.286;10.788;2023-09-08T10:36:12;4.60;;;4.10;;
3337;SDS011;1682;49.286;10.788;2023-09-08T10:42:25;5.23;;;4.83;;
3337;SDS011;1682;49.286;10.788;2023-09-08T10:45:14;4.10;;;3.80;;
3337;SDS011;1682;49.286;10.788;2023-09-08T10:48:02;6.07;;;4.60;;
3337;SDS011;1682;49.286;10.788;2023-09-08T10:50:49;6.73;;;3.80;;
3337;SDS011;1682;49.286;10.788;2023-09-08T10:53:38;5.40;;;4.60;;
3337;SDS011;1682;49.286;10.788;2023-09-08T10:56:27;4.67;;;4.27;;
3337;SDS011;1682;49.286;10.788;2023-09-08T10:59:16;4.80;;;4.40;;
3337;SDS011;1682;49.286;10.788;2023-09-08T11:02:04;4.73;;;4.33;;
3337;SDS011;1682;49.286;10.788;2023-09-08T11:04:51;4.33;;;3.93;;
3337;SDS011;1682;49.286;10.788;2023-09-08T11:07:41;4.93;;;4.03;;
3337;SDS011;1682;49.286;10.788;2023-09-08T11:10:28;4.70;;;4.23;;
3337;SDS011;1682;49.286;10.788;2023-09-08T11:13:17;5.37;;;4.97;;
3337;SDS011;1682;49.286;10.788;2023-09-08T11:16:05;11.07;;;5.77;;
3337;SDS011;1682;49.286;10.788;2023-09-08T11:18:53;9.33;;;4.50;;
3337;SDS011;1682;49.286;10.788;2023-09-08T11:21:40;3.90;;;3.67;;
3337;SDS011;1682;49.286;10.788;2023-09-08T11:24:28;7.03;;;6.33;;
3337;SDS011;1682;49.286;10.788;2023-09-08T11:27:16;3.80;;;3.60;;
3337;SDS011;1682;49.286;10.788;2023-09-08T11:30:03;4.67;;;4.37;;
3337;SDS011;1682;49.286;10.788;2023-09-08T11:32:53;4.13;;;3.83;;
3337;SDS011;1682;49.286;10.788;2023-09-08T11:35:45;4.83;;;4.43;;
3337;SDS011;1682;49.286;10.788;2023-09-08T11:38:32;4.37;;;3.43;;
3337;SDS011;1682;49.286;10.788;2023-09-08T11:41:19;4.37;;;4.07;;
3337;SDS011;1682;49.286;10.788;2023-09-08T11:44:09;4.53;;;4.10;;
3337;SDS011;1682;49.286;10.788;2023-09-08T11:46:56;4.40;;;4.10;;
3337;SDS011;1682;49.286;10.788;2023-09-08T11:49:46;4.73;;;4.33;;
3337;SDS011;1682;49.286;10.788;2023-09-08T11:52:33;4.60;;;4.20;;
3337;SDS011;1682;49.286;10.788;2023-09-08T11:55:21;6.80;;;6.23;;
3337;SDS011;1682;49.286;10.788;2023-09-08T11:58:09;6.60;;;4.20;;
3337;SDS011;1682;49.286;10.788;2023-09-08T12:00:57;5.40;;;4.03;;
3337;SDS011;1682;49.286;10.788;2023-09-08T12:03:51;3.70;;;3.40;;
3337;SDS011;1682;49.286;10.788;2023-09-08T12:06:40;5.10;;;3.88;;
3337;SDS011;1682;49.286;10.788;2023-09-08T12:09:27;3.40;;;3.10;;
3337;SDS011;1682;49.286;10.788;2023-09-08T12:12:15;3.40;;;2.83;;
3337;SDS011;1682;49.286;10.788;2023-09-08T12:15:02;3.20;;;3.00;;
3337;SDS011;1682;49.286;10.788;2023-09-08T12:17:50;2.85;;;2.67;;
3337;SDS011;1682;49.286;10.788;2023-09-08T12:20:38;3.25;;;3.05;;
3337;SDS011;1682;49.286;10.788;2023-09-08T12:23:28;3.47;;;3.17;;
3337;SDS011;1682;49.286;10.788;2023-09-08T12:26:15;3.38;;;3.17;;
3337;SDS011;1682;49.286;10.788;2023-09-08T12:29:03;3.78;;;2.97;;
3337;SDS011;1682;49.286;10.788;2023-09-08T12:31:51;3.17;;;2.88;;
3337;SDS011;1682;49.286;10.788;2023-09-08T12:34:38;2.70;;;2.58;;
3337;SDS011;1682;49.286;10.788;2023-09-08T12:37:26;2.63;;;2.47;;
3337;SDS011;1682;49.286;10.788;2023-09-08T12:40:15;2.78;;;2.58;;
3337;SDS011;1682;49.286;10.788;2023-09-08T12:43:03;3.45;;;3.20;;
3337;SDS011;1682;49.286;10.788;2023-09-08T12:45:51;3.08;;;2.83;;
3337;SDS011;1682;49.286;10.788;2023-09-08T12:48:38;2.55;;;2.45;;
3337;SDS011;1682;49.286;10.788;2023-09-08T12:51:26;3.80;;;2.65;;
3337;SDS011;1682;49.286;10.788;2023-09-08T12:54:13;2.78;;;2.58;;
3337;SDS011;1682;49.286;10.788;2023-09-08T12:57:02;7.15;;;5.45;;
3337;SDS011;1682;49.286;10.788;2023-09-08T12:59:50;2.80;;;2.58;;
3337;SDS011;1682;49.286;10.788;2023-09-08T13:02:37;3.78;;;3.47;;
3337;SDS011;1682;49.286;10.788;2023-09-08T13:05:25;4.82;;;4.43;;
3337;SDS011;1682;49.286;10.788;2023-09-08T13:08:13;2.00;;;1.90;;
3337;SDS011;1682;49.286;10.788;2023-09-08T13:11:01;2.90;;;2.70;;
3337;SDS011;1682;49.286;10.788;2023-09-08T13:13:50;3.17;;;2.97;;
3337;SDS011;1682;49.286;10.788;2023-09-08T13:16:37;2.83;;;2.65;;
3337;SDS011;1682;49.286;10.788;2023-09-08T13:19:25;2.67;;;2.50;;
3337;SDS011;1682;49.286;10.788;2023-09-08T13:22:12;3.15;;;2.90;;
3337;SDS011;1682;49.286;10.788;2023-09-08T13:25:00;3.40;;;3.13;;
3337;SDS011;1682;49.286;10.788;2023-09-08T13:27:47;2.85;;;2.70;;
3337;SDS011;1682;49.286;10.788;2023-09-08T13:30:36;3.15;;;2.83;;
3337;SDS011;1682;49.286;10.788;2023-09-08T13:33:24;2.95;;;2.75;;
3337;SDS011;1682;49.286;10.788;2023-09-08T13:36:11;2.42;;;2.33;;
3337;SDS011;1682;49.286;10.788;2023-09-08T13:38:59;3.00;;;2.90;;
3337;SDS011;1682;49.286;10.788;2023-09-08T13:41:47;3.08;;;2.88;;
3337;SDS011;1682;49.286;10.788;2023-09-08T13:44:35;2.72;;;2.63;;
3337;SDS011;1682;49.286;10.788;2023-09-08T13:47:24;2.40;;;2.30;;
3337;SDS011;1682;49.286;10.788;2023-09-08T13:50:11;4.72;;;2.70;;
3337;SDS011;1682;49.286;10.788;2023-09-08T13:52:59;2.75;;;2.55;;
3337;SDS011;1682;49.286;10.788;2023-09-08T13:55:46;3.78;;;2.78;;
3337;SDS011;1682;49.286;10.788;2023-09-08T13:58:34;3.47;;;3.17;;
3337;SDS011;1682;49.286;10.788;2023-09-08T14:01:21;3.15;;;2.95;;
3337;SDS011;1682;49.286;10.788;2023-09-08T14:04:10;2.55;;;2.30;;
3337;SDS011;1682;49.286;10.788;2023-09-08T14:06:57;2.90;;;2.70;;
3337;SDS011;1682;49.286;10.788;2023-09-08T14:09:45;2.60;;;2.50;;
3337;SDS011;1682;49.286;10.788;2023-09-08T14:12:32;3.70;;;3.10;;
3337;SDS011;1682;49.286;10.788;2023-09-08T14:15:20;3.47;;;3.22;;
3337;SDS011;1682;49.286;10.788;2023-09-08T14:18:07;3.53;;;3.30;;
3337;SDS011;1682;49.286;10.788;2023-09-08T14:20:56;3.75;;;3.03;;
3337;SDS011;1682;49.286;10.788;2023-09-08T14:23:44;3.28;;;2.97;;
3337;SDS011;1682;49.286;10.788;2023-09-08T14:26:31;2.90;;;2.70;;
3337;SDS011;1682;49.286;10.788;2023-09-08T14:29:20;4.90;;;3.05;;
3337;SDS011;1682;49.286;10.788;2023-09-08T14:32:08;3.03;;;2.88;;
3337;SDS011;1682;49.286;10.788;2023-09-08T14:34:56;2.53;;;2.42;;
3337;SDS011;1682;49.286;10.788;2023-09-08T14:37:45;2.63;;;2.53;;
3337;SDS011;1682;49.286;10.788;2023-09-08T14:40:33;3.22;;;3.03;;
3337;SDS011;1682;49.286;10.788;2023-09-08T14:43:21;3.70;;;3.50;;
3337;SDS011;1682;49.286;10.788;2023-09-08T14:46:08;11.85;;;8.32;;
3337;SDS011;1682;49.286;10.788;2023-09-08T14:48:56;3.30;;;3.10;;
3337;SDS011;1682;49.286;10.788;2023-09-08T14:51:43;3.40;;;3.20;;
3337;SDS011;1682;49.286;10.788;2023-09-08T14:54:32;3.53;;;3.22;;
3337;SDS011;1682;49.286;10.788;2023-09-08T14:57:20;5.25;;;3.65;;
3337;SDS011;1682;49.286;10.788;2023-09-08T15:00:07;3.38;;;2.90;;
3337;SDS011;1682;49.286;10.788;2023-09-08T15:02:55;4.10;;;3.70;;
3337;SDS011;1682;49.286;10.788;2023-09-08T15:05:43;3.23;;;2.93;;
3337;SDS011;1682;49.286;10.788;2023-09-08T15:08:30;3.70;;;3.40;;
3337;SDS011;1682;49.286;10.788;2023-09-08T15:11:20;4.57;;;3.20;;
3337;SDS011;1682;49.286;10.788;2023-09-08T15:14:07;4.43;;;3.50;;
3337;SDS011;1682;49.286;10.788;2023-09-08T15:16:55;3.63;;;3.43;;
3337;SDS011;1682;49.286;10.788;2023-09-08T15:19:42;5.07;;;3.70;;
3337;SDS011;1682;49.286;10.788;2023-09-08T15:22:30;4.27;;;3.87;;
3337;SDS011;1682;49.286;10.788;2023-09-08T15:25:17;4.30;;;4.00;;
3337;SDS011;1682;49.286;10.788;2023-09-08T15:28:06;4.30;;;3.70;;
3337;SDS011;1682;49.286;10.788;2023-09-08T15:30:54;4.20;;;3.80;;
3337;SDS011;1682;49.286;10.788;2023-09-08T15:33:41;3.90;;;3.60;;
3337;SDS011;1682;49.286;10.788;2023-09-08T15:36:29;4.80;;;3.77;;
3337;SDS011;1682;49.286;10.788;2023-09-08T15:39:16;6.00;;;4.83;;
3337;SDS011;1682;49.286;10.788;2023-09-08T15:42:04;4.17;;;3.70;;
3337;SDS011;1682;49.286;10.788;2023-09-08T15:44:53;8.73;;;6.37;;
3337;SDS011;1682;49.286;10.788;2023-09-08T15:47:40;5.00;;;4.50;;
3337;SDS011;1682;49.286;10.788;2023-09-08T15:50:28;4.57;;;4.17;;
3337;SDS011;1682;49.286;10.788;2023-09-08T15:53:15;3.80;;;3.50;;
3337;SDS011;1682;49.286;10.788;2023-09-08T15:56:03;5.07;;;4.57;;
3337;SDS011;1682;49.286;10.788;2023-09-08T15:58:50;4.40;;;4.00;;
3337;SDS011;1682;49.286;10.788;2023-09-08T16:01:39;6.90;;;4.60;;
3337;SDS011;1682;49.286;10.788;2023-09-08T16:04:26;6.40;;;5.37;;
3337;SDS011;1682;49.286;10.788;2023-09-08T16:07:14;9.43;;;3.70;;
3337;SDS011;1682;49.286;10.788;2023-09-08T16:10:01;4.23;;;3.83;;
3337;SDS011;1682;49.286;10.788;2023-09-08T16:12:49;5.50;;;4.50;;
3337;SDS011;1682;49.286;10.788;2023-09-08T16:15:38;4.20;;;3.90;;
3337;SDS011;1682;49.286;10.788;2023-09-08T16:18:27;4.90;;;4.50;;
3337;SDS011;1682;49.286;10.788;2023-09-08T16:21:15;3.87;;;3.60;;
3337;SDS011;1682;49.286;10.788;2023-09-08T16:24:02;5.23;;;4.73;;
3337;SDS011;1682;49.286;10.788;2023-09-08T16:26:50;7.83;;;4.20;;
3337;SDS011;1682;49.286;10.788;2023-09-08T16:29:37;7.40;;;5.70;;
3337;SDS011;1682;49.286;10.788;2023-09-08T16:32:25;6.97;;;5.70;;
3337;SDS011;1682;49.286;10.788;2023-09-08T16:35:14;5.63;;;4.30;;
3337;SDS011;1682;49.286;10.788;2023-09-08T16:38:02;9.93;;;6.37;;
3337;SDS011;1682;49.286;10.788;2023-09-08T16:40:49;4.20;;;3.80;;
3337;SDS011;1682;49.286;10.788;2023-09-08T16:43:37;5.60;;;4.10;;
3337;SDS011;1682;49.286;10.788;2023-09-08T16:46:24;3.90;;;3.60;;
3337;SDS011;1682;49.286;10.788;2023-09-08T16:49:12;4.80;;;3.03;;
3337;SDS011;1682;49.286;10.788;2023-09-08T16:52:02;4.60;;;4.03;;
3337;SDS011;1682;49.286;10.788;2023-09-08T16:54:49;4.40;;;4.00;;
3337;SDS011;1682;49.286;10.788;2023-09-08T16:57:37;4.40;;;4.00;;
3337;SDS011;1682;49.286;10.788;2023-09-08T17:00:24;8.63;;;5.43;;
3337;SDS011;1682;49.286;10.788;2023-09-08T17:03:12;5.80;;;5.30;;
3337;SDS011;1682;49.286;10.788;2023-09-08T17:05:59;7.73;;;4.40;;
3337;SDS011;1682;49.286;10.788;2023-09-08T17:08:48;5.43;;;4.10;;